Time;durP1;ratioP1;P1;durP2;ratioP2;P2;SDS_P1;SDS_P2;PMS_P1;PMS_P2;Temp;Humidity;BMP_temperature;BMP_pressure;BME280_temperature;BME280_humidity;BME280_pressure;Samples;Min_cycle;Max_cycle;Signal;HPM_P1;HPM_P2
2021/08/31 00:00:13;;;;;;;11.23;10.13;;;14.30;99.90;;;;;;5062175;28;20707;-81
2021/08/31 00:02:42;;;;;;;10.83;9.63;;;14.30;99.90;;;;;;5061156;28;20669;-81
2021/08/31 00:05:11;;;;;;;10.40;9.40;;;14.30;99.90;;;;;;5059831;28;20653;-80
2021/08/31 00:07:38;;;;;;;12.00;10.03;;;14.30;99.90;;;;;;5072024;28;20686;-81
2021/08/31 00:10:07;;;;;;;10.03;9.07;;;14.30;99.90;;;;;;5071272;28;21217;-81
2021/08/31 00:12:34;;;;;;;12.07;10.83;;;14.30;99.90;;;;;;5059465;28;20673;-81
2021/08/31 00:15:02;;;;;;;10.70;9.70;;;14.40;99.90;;;;;;5051845;28;20713;-81
2021/08/31 00:17:29;;;;;;;10.90;9.80;;;14.30;99.90;;;;;;5051820;28;21209;-81
2021/08/31 00:19:57;;;;;;;12.00;10.70;;;14.30;99.90;;;;;;5055077;28;20676;-81
2021/08/31 00:22:25;;;;;;;9.70;8.70;;;14.30;99.90;;;;;;5050208;28;20662;-80
2021/08/31 00:24:52;;;;;;;10.50;9.30;;;14.30;99.90;;;;;;5051888;28;20672;-80
2021/08/31 00:27:19;;;;;;;12.03;9.70;;;14.30;99.90;;;;;;5050911;28;20655;-81
2021/08/31 00:29:46;;;;;;;11.00;9.93;;;14.30;99.90;;;;;;5051600;28;20614;-80
2021/08/31 00:32:13;;;;;;;10.47;9.47;;;14.30;99.90;;;;;;5050995;28;20621;-81
2021/08/31 00:34:40;;;;;;;13.03;9.90;;;14.30;99.90;;;;;;5051711;28;20729;-80
2021/08/31 00:37:08;;;;;;;9.93;8.93;;;14.30;99.90;;;;;;5051800;28;20737;-80
2021/08/31 00:39:35;;;;;;;11.50;10.30;;;14.30;99.90;;;;;;5051554;28;21036;-81
2021/08/31 00:42:02;;;;;;;11.93;10.10;;;14.30;99.90;;;;;;5064036;28;20686;-80
2021/08/31 00:44:30;;;;;;;11.73;10.63;;;14.30;99.90;;;;;;5051372;28;20606;-80
2021/08/31 00:46:57;;;;;;;12.30;10.67;;;14.40;99.90;;;;;;5051092;28;20618;-80
2021/08/31 00:49:24;;;;;;;13.90;12.10;;;14.30;99.90;;;;;;5051407;28;20676;-80
2021/08/31 00:51:53;;;;;;;11.10;10.03;;;14.30;99.90;;;;;;5050903;28;20658;-80
2021/08/31 00:54:22;;;;;;;15.73;12.03;;;14.40;99.90;;;;;;5051387;28;20625;-80
2021/08/31 00:56:50;;;;;;;22.37;12.40;;;14.40;99.90;;;;;;5070966;28;20707;-80
2021/08/31 00:59:18;;;;;;;13.03;11.80;;;14.40;99.90;;;;;;5071261;28;20622;-80
2021/08/31 01:01:45;;;;;;;13.97;11.20;;;14.40;99.90;;;;;;5070513;28;20653;-80
2021/08/31 01:04:14;;;;;;;11.47;10.37;;;14.30;99.90;;;;;;5070124;28;21191;-80
2021/08/31 01:06:43;;;;;;;12.67;11.37;;;14.30;99.90;;;;;;5071331;28;20650;-80
2021/08/31 01:09:14;;;;;;;14.33;11.33;;;14.30;99.90;;;;;;5070992;28;20606;-81
2021/08/31 01:11:47;;;;;;;13.97;11.90;;;14.30;99.90;;;;;;5065248;28;20668;-81
2021/08/31 01:14:18;;;;;;;14.43;11.30;;;14.30;99.90;;;;;;5051394;28;20622;-81
2021/08/31 01:16:47;;;;;;;15.07;12.57;;;14.30;99.90;;;;;;5051094;28;20668;-81
2021/08/31 01:19:15;;;;;;;16.83;13.53;;;14.30;99.90;;;;;;5056050;28;20640;-80
2021/08/31 01:21:45;;;;;;;17.30;14.17;;;14.40;99.90;;;;;;5070163;28;20661;-81
2021/08/31 01:24:13;;;;;;;15.37;13.77;;;14.30;99.90;;;;;;5070732;28;20629;-81
2021/08/31 01:26:43;;;;;;;16.73;13.80;;;14.30;99.90;;;;;;5071425;28;20732;-80
2021/08/31 01:29:11;;;;;;;18.87;12.20;;;14.30;99.90;;;;;;5082124;28;20959;-81
2021/08/31 01:31:38;;;;;;;14.10;12.60;;;14.30;99.90;;;;;;5062890;28;20649;-80
2021/08/31 01:34:06;;;;;;;13.80;12.30;;;14.20;99.90;;;;;;5069134;28;20617;-81
2021/08/31 01:36:34;;;;;;;15.10;13.50;;;14.30;99.90;;;;;;5070329;28;20630;-80
2021/08/31 01:39:02;;;;;;;15.47;13.97;;;14.30;99.90;;;;;;5069948;28;20653;-80
2021/08/31 01:41:30;;;;;;;16.27;14.23;;;14.30;99.90;;;;;;5069692;28;20677;-80
2021/08/31 01:43:59;;;;;;;15.17;13.53;;;14.30;99.90;;;;;;5069658;28;20621;-80
2021/08/31 01:46:27;;;;;;;21.17;15.00;;;14.30;99.90;;;;;;5069613;28;20651;-80
2021/08/31 01:48:59;;;;;;;16.63;14.93;;;14.20;99.90;;;;;;5070026;28;20636;-80
2021/08/31 01:51:29;;;;;;;16.87;14.37;;;14.30;99.90;;;;;;5070198;28;20622;-80
2021/08/31 01:53:59;;;;;;;15.97;13.53;;;14.30;99.90;;;;;;5069816;28;20634;-80
2021/08/31 01:56:31;;;;;;;16.50;14.63;;;14.30;99.90;;;;;;5070102;28;20653;-80
2021/08/31 01:59:04;;;;;;;17.73;15.20;;;14.30;99.90;;;;;;5069322;28;20617;-80
2021/08/31 02:01:36;;;;;;;21.20;16.00;;;14.30;99.90;;;;;;5069987;28;20660;-80
2021/08/31 02:04:07;;;;;;;16.90;14.73;;;14.30;99.90;;;;;;5069018;28;20647;-80
2021/08/31 02:06:46;;;;;;;17.80;14.63;;;14.30;99.90;;;;;;5068744;28;20728;-80
2021/08/31 02:09:23;;;;;;;16.93;15.13;;;14.30;99.90;;;;;;5066200;28;20956;-80
2021/08/31 02:12:04;;;;;;;17.07;13.60;;;14.30;99.90;;;;;;5065472;28;20652;-80
2021/08/31 02:14:39;;;;;;;17.27;14.70;;;14.20;99.90;;;;;;5069778;28;20639;-79
2021/08/31 02:17:08;;;;;;;22.83;16.13;;;14.20;99.90;;;;;;5060198;28;20626;-80
2021/08/31 02:19:38;;;;;;;17.23;15.30;;;14.20;99.90;;;;;;5057586;28;20983;-80
2021/08/31 02:22:06;;;;;;;14.90;12.93;;;14.20;99.90;;;;;;5068815;28;21004;-80
2021/08/31 02:24:35;;;;;;;22.10;14.67;;;14.20;99.90;;;;;;5069987;28;20667;-80
2021/08/31 02:27:03;;;;;;;17.53;13.90;;;14.10;99.90;;;;;;5069790;28;21196;-80
2021/08/31 02:29:30;;;;;;;14.33;12.53;;;14.20;99.90;;;;;;5069781;28;20622;-80
2021/08/31 02:32:00;;;;;;;15.73;14.10;;;14.20;99.90;;;;;;5054283;28;20649;-80
2021/08/31 02:34:28;;;;;;;17.07;13.87;;;14.20;99.90;;;;;;5049544;28;20738;-80
2021/08/31 02:36:56;;;;;;;16.23;14.30;;;14.20;99.90;;;;;;5064579;28;20732;-80
2021/08/31 02:39:25;;;;;;;19.23;14.13;;;14.20;99.90;;;;;;5056940;28;20788;-81
2021/08/31 02:41:54;;;;;;;16.47;13.13;;;14.20;99.90;;;;;;5048116;28;20618;-80
2021/08/31 02:44:22;;;;;;;18.53;14.60;;;14.20;99.90;;;;;;5060096;28;20661;-80
2021/08/31 02:46:53;;;;;;;16.00;13.00;;;14.10;99.90;;;;;;5057359;28;20620;-80
2021/08/31 02:49:22;;;;;;;15.17;11.83;;;14.10;99.90;;;;;;5056002;28;20657;-80
2021/08/31 02:51:54;;;;;;;18.50;13.67;;;14.10;99.90;;;;;;5071780;28;21015;-80
2021/08/31 02:54:22;;;;;;;14.53;12.77;;;14.20;99.90;;;;;;5062565;28;20627;-80
2021/08/31 02:56:50;;;;;;;17.23;12.10;;;14.20;99.90;;;;;;5053527;28;20638;-80
2021/08/31 02:59:18;;;;;;;14.90;12.70;;;14.10;99.90;;;;;;5053265;28;20626;-81
2021/08/31 03:04:29;;;;;;;14.63;12.93;;;14.20;99.90;;;;;;5070179;28;20644;-81
2021/08/31 03:06:58;;;;;;;13.97;12.20;;;14.10;99.90;;;;;;5073219;28;20653;-80
2021/08/31 03:09:26;;;;;;;15.37;12.17;;;14.10;99.90;;;;;;5071510;28;20622;-80
2021/08/31 03:11:54;;;;;;;14.07;12.50;;;14.10;99.90;;;;;;5051134;28;20942;-81
2021/08/31 03:14:24;;;;;;;14.50;11.40;;;14.10;99.90;;;;;;5053181;28;20713;-81
2021/08/31 03:16:52;;;;;;;14.33;12.20;;;14.10;99.90;;;;;;5051129;28;20738;-81
2021/08/31 03:19:23;;;;;;;14.80;13.07;;;14.10;99.90;;;;;;5049508;28;20642;-81
2021/08/31 03:21:52;;;;;;;13.93;12.00;;;14.20;99.90;;;;;;5055865;28;20672;-80
2021/08/31 03:24:22;;;;;;;16.60;14.80;;;14.20;99.90;;;;;;5072424;28;20684;-80
2021/08/31 03:26:49;;;;;;;14.93;12.80;;;14.20;99.90;;;;;;5068582;28;21102;-80
2021/08/31 03:29:17;;;;;;;13.43;12.03;;;14.20;99.90;;;;;;5062102;28;20626;-80
2021/08/31 03:31:44;;;;;;;15.00;13.23;;;14.20;99.90;;;;;;5052803;28;20659;-80
2021/08/31 03:34:11;;;;;;;16.10;12.90;;;14.20;99.90;;;;;;5069744;28;20621;-81
2021/08/31 03:36:38;;;;;;;14.13;12.63;;;14.20;99.90;;;;;;5072766;28;20624;-80
2021/08/31 03:39:07;;;;;;;20.30;14.07;;;14.10;99.90;;;;;;5067106;28;20637;-80
2021/08/31 03:41:34;;;;;;;15.17;13.57;;;14.10;99.90;;;;;;5065515;28;20635;-80
2021/08/31 03:44:01;;;;;;;16.37;13.30;;;14.00;99.90;;;;;;5068338;28;20997;-80
2021/08/31 03:46:28;;;;;;;22.33;15.80;;;14.10;99.90;;;;;;5071631;28;20732;-80
2021/08/31 03:48:55;;;;;;;19.63;15.47;;;14.10;99.90;;;;;;5072770;28;20621;-80
2021/08/31 03:51:22;;;;;;;16.60;14.80;;;14.10;99.90;;;;;;5072645;28;20613;-80
2021/08/31 03:53:49;;;;;;;16.37;14.57;;;14.10;99.90;;;;;;5063645;28;20618;-80
2021/08/31 03:56:17;;;;;;;16.90;14.47;;;14.10;99.90;;;;;;5066697;28;20625;-80
2021/08/31 03:58:44;;;;;;;20.03;17.63;;;14.00;99.90;;;;;;5063801;28;20633;-80
2021/08/31 04:01:10;;;;;;;21.40;15.83;;;14.00;99.90;;;;;;5070190;28;20625;-80
2021/08/31 04:03:38;;;;;;;18.03;15.43;;;14.00;99.90;;;;;;5070740;28;20760;-80
2021/08/31 04:06:05;;;;;;;18.23;15.43;;;14.00;99.90;;;;;;5072302;28;20609;-80
2021/08/31 04:08:32;;;;;;;18.43;14.73;;;14.00;99.90;;;;;;5072839;28;20628;-80
2021/08/31 04:10:59;;;;;;;18.17;15.70;;;14.10;99.90;;;;;;5071698;28;21020;-80
2021/08/31 04:13:27;;;;;;;21.27;19.07;;;14.10;99.90;;;;;;5071834;28;20618;-80
2021/08/31 04:15:54;;;;;;;19.10;15.17;;;14.20;99.90;;;;;;5058274;28;20654;-80
2021/08/31 04:18:21;;;;;;;16.93;14.60;;;14.10;99.90;;;;;;5052476;28;20614;-80
2021/08/31 04:20:48;;;;;;;18.20;15.17;;;14.10;99.90;;;;;;5051763;28;20620;-80
2021/08/31 04:23:15;;;;;;;22.70;15.03;;;14.00;99.90;;;;;;5070702;28;20670;-80
2021/08/31 04:25:42;;;;;;;19.90;15.90;;;14.00;99.90;;;;;;5071738;28;20660;-81
2021/08/31 04:28:09;;;;;;;19.80;14.80;;;14.00;99.90;;;;;;5062571;28;20619;-80
2021/08/31 04:30:37;;;;;;;19.87;14.27;;;14.00;99.90;;;;;;5051849;28;20656;-81
2021/08/31 04:33:04;;;;;;;19.50;16.83;;;14.00;99.90;;;;;;5064829;28;21084;-81
2021/08/31 04:35:31;;;;;;;21.30;16.33;;;14.00;99.90;;;;;;5069924;28;20625;-80
2021/08/31 04:37:58;;;;;;;18.33;16.40;;;14.00;99.90;;;;;;5072012;28;20626;-81
2021/08/31 04:40:25;;;;;;;17.57;15.40;;;14.00;99.90;;;;;;5084264;28;20670;-81
2021/08/31 04:42:52;;;;;;;17.80;15.77;;;14.00;99.90;;;;;;5061118;28;20696;-81
2021/08/31 04:45:19;;;;;;;21.70;15.97;;;14.00;99.90;;;;;;5051522;28;21186;-81
2021/08/31 04:47:48;;;;;;;15.80;14.10;;;14.00;99.90;;;;;;5051232;28;20627;-81
2021/08/31 04:50:18;;;;;;;16.53;14.73;;;14.00;99.90;;;;;;5052029;28;20622;-80
2021/08/31 04:52:46;;;;;;;16.93;14.43;;;13.90;99.90;;;;;;5067655;28;20625;-81
2021/08/31 04:55:13;;;;;;;15.47;13.40;;;14.00;99.90;;;;;;5051912;28;20638;-80
2021/08/31 04:57:40;;;;;;;14.80;13.27;;;14.00;99.90;;;;;;5051729;28;20630;-80
2021/08/31 05:00:08;;;;;;;17.63;14.83;;;14.10;99.90;;;;;;5051522;28;20737;-80
2021/08/31 05:02:36;;;;;;;22.63;14.50;;;14.00;99.90;;;;;;5050309;28;21161;-79
2021/08/31 05:05:05;;;;;;;17.30;15.50;;;14.00;99.90;;;;;;5051524;28;20641;-80
2021/08/31 05:07:33;;;;;;;18.77;13.60;;;14.00;99.90;;;;;;5051407;28;20614;-80
2021/08/31 05:10:00;;;;;;;16.07;14.00;;;14.00;99.90;;;;;;5050716;28;20964;-80
2021/08/31 05:12:27;;;;;;;16.03;14.10;;;13.90;99.90;;;;;;5060184;28;20626;-80
2021/08/31 05:14:54;;;;;;;16.40;14.60;;;14.00;99.90;;;;;;5070072;28;20641;-80
2021/08/31 05:17:23;;;;;;;16.70;14.57;;;13.90;99.90;;;;;;5070963;28;20613;-80
2021/08/31 05:19:50;;;;;;;16.40;14.70;;;14.00;99.90;;;;;;5070835;28;21169;-80
2021/08/31 05:22:18;;;;;;;15.00;13.37;;;14.00;99.90;;;;;;5060809;28;20672;-81
2021/08/31 05:24:46;;;;;;;15.70;14.10;;;13.90;99.90;;;;;;5053718;28;20705;-80
2021/08/31 05:27:14;;;;;;;16.60;13.87;;;13.90;99.90;;;;;;5059130;28;20625;-80
2021/08/31 05:29:42;;;;;;;16.57;13.33;;;14.00;99.90;;;;;;5061148;28;20669;-81
2021/08/31 05:32:09;;;;;;;21.17;15.40;;;14.00;99.90;;;;;;5062613;28;20737;-80
2021/08/31 05:34:36;;;;;;;15.73;14.17;;;14.00;99.90;;;;;;5067545;28;20653;-80
2021/08/31 05:37:03;;;;;;;16.57;14.57;;;14.00;99.90;;;;;;5055288;28;20642;-82
2021/08/31 05:39:33;;;;;;;15.10;13.53;;;14.00;99.90;;;;;;5066471;28;20621;-81
2021/08/31 05:42:02;;;;;;;16.00;14.40;;;14.10;99.90;;;;;;5061204;28;20653;-81
2021/08/31 05:44:29;;;;;;;19.57;15.90;;;14.10;99.90;;;;;;5054876;28;20690;-81
2021/08/31 05:46:56;;;;;;;15.13;13.50;;;14.20;99.90;;;;;;5055882;28;20641;-81
2021/08/31 05:49:23;;;;;;;16.30;14.07;;;14.20;99.90;;;;;;5059855;28;20980;-81
2021/08/31 05:51:50;;;;;;;16.70;13.23;;;14.10;99.90;;;;;;5059363;28;21205;-82
2021/08/31 05:54:17;;;;;;;15.00;13.40;;;14.10;99.90;;;;;;5051692;28;20644;-81
2021/08/31 05:56:50;;;;;;;16.03;14.33;;;14.20;99.90;;;;;;5061809;28;20636;-82
2021/08/31 05:59:17;;;;;;;15.27;13.57;;;14.20;99.90;;;;;;5053800;28;20625;-81
2021/08/31 06:01:46;;;;;;;16.30;13.67;;;14.20;99.90;;;;;;5056075;28;20629;-82
2021/08/31 06:04:15;;;;;;;17.00;12.90;;;14.00;99.90;;;;;;5057051;28;20780;-82
2021/08/31 06:06:42;;;;;;;17.50;14.50;;;14.00;99.90;;;;;;5063328;28;20652;-82
2021/08/31 06:09:10;;;;;;;19.13;13.03;;;14.00;99.90;;;;;;5048839;28;20629;-82
2021/08/31 06:11:38;;;;;;;15.13;12.87;;;14.00;99.90;;;;;;5058573;28;20626;-82
2021/08/31 06:14:08;;;;;;;14.63;12.90;;;14.10;99.90;;;;;;5059796;28;20618;-81
2021/08/31 06:16:36;;;;;;;15.93;13.87;;;14.20;99.90;;;;;;5058929;28;20618;-81
2021/08/31 06:19:03;;;;;;;15.57;13.07;;;14.20;99.90;;;;;;5061863;28;21036;-82
2021/08/31 06:21:30;;;;;;;17.83;13.13;;;14.10;99.90;;;;;;5057777;28;20703;-82
2021/08/31 06:23:57;;;;;;;15.80;13.10;;;14.10;99.90;;;;;;5061969;28;21013;-81
2021/08/31 06:26:24;;;;;;;14.70;13.23;;;14.20;99.90;;;;;;5066398;28;20621;-82
2021/08/31 06:28:51;;;;;;;14.40;12.90;;;14.20;99.90;;;;;;5059214;28;20684;-81
2021/08/31 06:31:19;;;;;;;16.17;13.30;;;14.30;99.90;;;;;;5055701;28;20622;-81
2021/08/31 06:33:46;;;;;;;13.63;12.23;;;14.10;99.90;;;;;;5057650;28;20714;-81
2021/08/31 06:36:14;;;;;;;16.33;14.00;;;14.10;99.90;;;;;;5060303;28;20629;-82
2021/08/31 06:38:41;;;;;;;13.67;12.07;;;14.20;99.90;;;;;;5055330;28;20637;-83
2021/08/31 06:41:08;;;;;;;15.40;11.80;;;14.20;99.90;;;;;;5054946;28;20684;-82
2021/08/31 06:43:35;;;;;;;13.93;12.43;;;14.20;99.90;;;;;;5053970;28;21307;-81
2021/08/31 06:46:02;;;;;;;14.43;12.97;;;14.20;99.90;;;;;;5059917;28;20674;-81
2021/08/31 06:48:31;;;;;;;15.07;13.57;;;14.20;99.90;;;;;;5059191;28;20654;-81
2021/08/31 06:50:58;;;;;;;14.13;11.57;;;14.20;99.90;;;;;;5061911;28;20629;-82
2021/08/31 06:53:25;;;;;;;14.30;12.40;;;14.30;99.90;;;;;;5060863;28;20639;-81
2021/08/31 06:55:52;;;;;;;15.40;13.80;;;14.40;99.90;;;;;;5060286;28;20631;-82
2021/08/31 06:58:19;;;;;;;14.00;12.20;;;14.50;99.90;;;;;;5050000;28;20654;-81
2021/08/31 07:00:46;;;;;;;14.10;11.40;;;14.50;99.90;;;;;;5059158;28;20965;-81
2021/08/31 07:03:13;;;;;;;14.70;12.10;;;14.50;99.90;;;;;;5056975;28;20682;-81
2021/08/31 07:05:41;;;;;;;14.33;12.83;;;14.60;99.90;;;;;;5059602;28;20660;-82
2021/08/31 07:08:08;;;;;;;17.23;13.93;;;14.60;99.90;;;;;;5055684;28;20630;-82
2021/08/31 07:10:38;;;;;;;13.30;11.27;;;14.60;99.90;;;;;;5062883;28;20694;-81
2021/08/31 07:13:05;;;;;;;14.57;13.00;;;14.60;99.90;;;;;;5055473;28;20646;-81
2021/08/31 07:15:32;;;;;;;13.77;12.37;;;14.60;99.90;;;;;;5052931;28;20679;-81
2021/08/31 07:18:02;;;;;;;16.10;12.03;;;14.60;99.90;;;;;;5058403;28;21555;-82
2021/08/31 07:20:29;;;;;;;12.27;11.17;;;14.70;99.90;;;;;;5058794;28;20621;-82
2021/08/31 07:22:57;;;;;;;12.33;11.13;;;14.60;99.90;;;;;;5053605;28;21303;-82
2021/08/31 07:25:27;;;;;;;14.33;11.27;;;14.60;99.90;;;;;;5058933;28;20781;-82
2021/08/31 07:27:54;;;;;;;12.30;11.07;;;14.50;99.90;;;;;;5058503;28;20654;-82
2021/08/31 07:30:35;;;;;;;11.80;10.60;;;14.60;99.90;;;;;;5053264;28;20639;-83
2021/08/31 07:33:05;;;;;;;12.87;11.67;;;14.60;99.90;;;;;;5055428;28;20635;-82
2021/08/31 07:35:37;;;;;;;12.90;11.33;;;14.70;99.90;;;;;;5054462;28;21259;-83
2021/08/31 07:38:09;;;;;;;12.10;10.53;;;14.60;99.90;;;;;;5063272;28;20739;-83
2021/08/31 07:40:37;;;;;;;13.13;11.07;;;14.60;99.90;;;;;;5059135;28;21013;-84
2021/08/31 07:43:04;;;;;;;11.80;10.60;;;14.70;99.90;;;;;;5057026;28;20628;-83
2021/08/31 07:45:31;;;;;;;12.80;10.53;;;14.70;99.90;;;;;;5060918;28;20697;-83
2021/08/31 07:47:58;;;;;;;11.90;10.80;;;14.70;99.90;;;;;;5068703;28;20617;-82
2021/08/31 07:50:26;;;;;;;10.87;9.77;;;14.70;99.90;;;;;;5070870;28;20998;-82
2021/08/31 07:52:53;;;;;;;12.77;10.90;;;14.70;99.90;;;;;;5060689;28;20626;-83
2021/08/31 07:55:21;;;;;;;12.50;11.17;;;14.90;99.90;;;;;;5060036;28;21245;-82
2021/08/31 07:57:48;;;;;;;11.47;10.47;;;14.90;99.90;;;;;;5060542;28;20668;-83
2021/08/31 08:00:17;;;;;;;12.23;11.13;;;14.90;99.90;;;;;;5065014;28;20620;-83
2021/08/31 08:02:44;;;;;;;12.13;10.93;;;15.00;99.90;;;;;;5055957;28;20752;-83
2021/08/31 08:05:12;;;;;;;11.40;10.30;;;15.00;99.90;;;;;;5055977;28;20681;-84
2021/08/31 08:07:38;;;;;;;11.20;10.17;;;15.00;99.90;;;;;;5060190;28;20638;-83
2021/08/31 08:10:07;;;;;;;12.23;9.70;;;15.10;99.90;;;;;;5059902;28;20632;-82
2021/08/31 08:12:35;;;;;;;17.60;9.43;;;15.20;99.90;;;;;;5060694;28;21007;-82
2021/08/31 08:15:02;;;;;;;9.87;8.80;;;15.20;99.90;;;;;;5064848;28;20630;-83
2021/08/31 08:17:29;;;;;;;10.20;9.30;;;15.10;99.90;;;;;;5056651;28;20642;-83
2021/08/31 08:19:56;;;;;;;11.50;9.87;;;15.20;99.90;;;;;;5056294;28;21218;-83
2021/08/31 08:22:23;;;;;;;9.20;8.40;;;15.30;99.90;;;;;;5056265;28;20689;-82
2021/08/31 08:24:51;;;;;;;9.37;8.47;;;15.30;99.90;;;;;;5061207;28;20674;-83
2021/08/31 08:30:08;;;;;;;8.73;7.87;;;15.30;99.90;;;;;;5064585;28;20738;-84
2021/08/31 08:32:42;;;;;;;9.77;8.70;;;15.30;99.90;;;;;;5058962;28;20635;-82
2021/08/31 08:35:12;;;;;;;10.53;8.37;;;15.40;99.90;;;;;;5060696;28;20638;-83
2021/08/31 08:37:39;;;;;;;11.30;9.53;;;15.60;99.90;;;;;;5064745;28;20653;-83
2021/08/31 08:40:07;;;;;;;7.97;7.27;;;15.40;99.90;;;;;;5062504;28;20711;-83
2021/08/31 08:42:34;;;;;;;10.33;9.23;;;15.40;99.90;;;;;;5064313;28;20625;-82
2021/08/31 08:45:01;;;;;;;9.70;8.70;;;15.20;99.90;;;;;;5069114;28;20982;-83
2021/08/31 08:47:30;;;;;;;10.17;9.17;;;15.10;99.90;;;;;;5060270;28;20630;-83
2021/08/31 08:49:57;;;;;;;9.10;8.20;;;15.10;99.90;;;;;;5064707;28;20628;-83
2021/08/31 08:52:24;;;;;;;9.20;8.33;;;15.10;99.90;;;;;;5063110;28;20647;-83
2021/08/31 08:54:51;;;;;;;8.83;8.00;;;15.30;99.90;;;;;;5057814;28;20668;-83
2021/08/31 08:57:18;;;;;;;13.73;8.47;;;15.10;99.90;;;;;;5060151;28;20682;-83
2021/08/31 08:59:48;;;;;;;9.90;8.90;;;15.30;99.90;;;;;;5062477;28;20790;-83
2021/08/31 09:02:34;;;;;;;10.17;9.20;;;15.20;99.90;;;;;;5064388;28;20688;-82
2021/08/31 09:05:01;;;;;;;9.57;8.57;;;15.30;99.90;;;;;;5071383;28;20665;-83
2021/08/31 09:07:29;;;;;;;9.60;8.80;;;15.40;99.90;;;;;;5069218;28;20634;-84
2021/08/31 09:10:13;;;;;;;12.10;8.97;;;15.50;99.90;;;;;;5071267;28;20630;-83
2021/08/31 09:12:42;;;;;;;9.50;8.63;;;15.60;99.90;;;;;;5071328;28;20629;-83
2021/08/31 09:15:28;;;;;;;10.20;8.70;;;15.50;99.90;;;;;;5059464;28;20636;-82
2021/08/31 09:18:17;;;;;;;11.13;10.13;;;15.50;99.90;;;;;;5054489;28;20648;-82
2021/08/31 09:21:01;;;;;;;8.63;7.83;;;15.80;99.90;;;;;;5051773;28;20634;-83
2021/08/31 09:23:30;;;;;;;11.10;10.10;;;15.70;99.90;;;;;;5056768;28;20634;-82
2021/08/31 09:26:04;;;;;;;9.80;8.77;;;15.80;99.90;;;;;;5057908;28;20725;-83
2021/08/31 09:28:34;;;;;;;9.57;8.53;;;15.90;99.90;;;;;;5059217;28;20642;-82
2021/08/31 09:31:04;;;;;;;10.10;9.10;;;15.90;99.90;;;;;;5060604;28;20676;-82
2021/08/31 09:33:34;;;;;;;9.63;8.57;;;15.80;99.90;;;;;;5056817;28;20633;-83
2021/08/31 09:36:10;;;;;;;10.40;9.30;;;16.00;99.90;;;;;;5063366;28;20691;-82
2021/08/31 09:38:46;;;;;;;9.60;8.70;;;15.90;99.90;;;;;;5054963;28;20677;-82
2021/08/31 09:41:28;;;;;;;9.07;8.27;;;15.90;99.90;;;;;;5057324;28;20665;-83
2021/08/31 09:43:55;;;;;;;9.70;8.80;;;15.80;99.90;;;;;;5055720;28;22157;-84
2021/08/31 09:46:25;;;;;;;9.70;8.80;;;15.90;99.90;;;;;;5056529;28;20733;-83
2021/08/31 09:48:57;;;;;;;9.93;8.93;;;16.00;99.90;;;;;;5058750;28;20684;-83
2021/08/31 09:51:24;;;;;;;8.67;7.83;;;16.00;99.90;;;;;;5062673;28;20624;-82
2021/08/31 09:53:50;;;;;;;8.60;7.80;;;16.30;99.90;;;;;;5058961;28;20674;-83
2021/08/31 09:56:19;;;;;;;9.33;8.43;;;16.60;99.90;;;;;;5052706;28;20668;-83
2021/08/31 09:58:46;;;;;;;9.30;8.40;;;16.30;99.90;;;;;;5055891;28;20916;-82
2021/08/31 10:01:15;;;;;;;8.70;7.90;;;16.30;99.90;;;;;;5058318;28;20730;-82
2021/08/31 10:03:43;;;;;;;9.37;8.47;;;16.40;99.90;;;;;;5061382;28;20642;-82
2021/08/31 10:06:14;;;;;;;8.70;7.80;;;16.60;99.90;;;;;;5062683;28;20675;-82
2021/08/31 10:08:42;;;;;;;8.43;7.53;;;16.60;99.90;;;;;;5069412;28;20682;-82
2021/08/31 10:11:09;;;;;;;8.17;7.50;;;16.70;99.90;;;;;;5063276;28;21243;-83
2021/08/31 10:13:38;;;;;;;8.87;7.73;;;16.80;99.90;;;;;;5067228;28;20678;-83
2021/08/31 10:16:06;;;;;;;9.00;7.60;;;16.70;99.90;;;;;;5062379;28;20653;-84
2021/08/31 10:18:33;;;;;;;9.30;8.50;;;16.30;99.90;;;;;;5062680;28;20647;-84
2021/08/31 10:21:04;;;;;;;9.33;8.43;;;16.20;99.90;;;;;;5065504;28;20637;-83
2021/08/31 10:23:40;;;;;;;7.80;7.03;;;15.90;99.90;;;;;;5056410;28;20689;-83
2021/08/31 10:26:27;;;;;;;8.87;8.17;;;16.00;99.90;;;;;;5054491;28;20668;-83
2021/08/31 10:29:28;;;;;;;7.57;6.77;;;16.00;99.90;;;;;;5054490;28;20644;-83
2021/08/31 10:31:57;;;;;;;9.00;8.20;;;15.80;99.90;;;;;;5064825;28;21020;-84
2021/08/31 10:34:41;;;;;;;8.10;7.30;;;15.90;99.90;;;;;;5068758;28;21019;-83
2021/08/31 10:37:13;;;;;;;8.37;7.50;;;15.80;99.90;;;;;;5060844;28;20650;-84
2021/08/31 10:39:49;;;;;;;8.33;7.57;;;16.00;99.90;;;;;;5059517;28;20636;-84
2021/08/31 10:42:49;;;;;;;9.70;8.77;;;16.10;99.90;;;;;;5069389;28;20665;-81
2021/08/31 10:45:31;;;;;;;9.47;8.57;;;16.20;99.90;;;;;;5007976;28;20668;-84
2021/08/31 10:47:59;;;;;;;9.13;8.33;;;16.30;99.90;;;;;;4999919;28;20639;-84
2021/08/31 10:50:27;;;;;;;8.53;7.83;;;16.40;99.90;;;;;;5036614;28;20674;-81
2021/08/31 10:53:04;;;;;;;8.83;8.00;;;16.70;99.90;;;;;;5051950;28;20662;-84
2021/08/31 10:55:49;;;;;;;8.83;8.03;;;16.50;99.90;;;;;;5054609;28;20636;-84
2021/08/31 10:58:43;;;;;;;8.30;7.50;;;16.50;99.90;;;;;;5061086;28;20635;-83
2021/08/31 11:01:20;;;;;;;9.23;7.73;;;16.60;99.90;;;;;;5060620;28;20682;-84
2021/08/31 11:03:51;;;;;;;9.73;8.83;;;16.90;99.90;;;;;;5065435;28;20714;-84
2021/08/31 11:06:36;;;;;;;10.43;9.20;;;17.00;99.90;;;;;;5063255;28;20669;-84
2021/08/31 11:09:19;;;;;;;9.20;8.30;;;17.00;99.90;;;;;;5060835;28;20632;-84
2021/08/31 11:12:10;;;;;;;8.10;7.40;;;17.00;99.90;;;;;;5068138;28;20990;-83
2021/08/31 11:14:58;;;;;;;9.80;8.80;;;17.20;99.90;;;;;;5062718;28;20639;-82
2021/08/31 11:17:39;;;;;;;8.57;7.57;;;17.40;99.90;;;;;;5060150;28;20972;-84
2021/08/31 11:20:14;;;;;;;8.00;7.30;;;17.30;99.90;;;;;;5058829;28;20664;-84
2021/08/31 11:22:41;;;;;;;7.43;6.73;;;17.30;99.90;;;;;;5055733;28;21450;-84
2021/08/31 11:25:09;;;;;;;7.03;6.37;;;17.40;99.90;;;;;;5057580;28;20715;-84
2021/08/31 11:27:54;;;;;;;6.80;6.20;;;17.30;99.90;;;;;;5058968;28;20688;-84
2021/08/31 11:30:21;;;;;;;8.20;6.30;;;17.20;99.90;;;;;;5064144;28;20617;-83
2021/08/31 11:32:48;;;;;;;8.70;7.10;;;17.00;99.90;;;;;;5064485;28;20622;-83
2021/08/31 11:35:15;;;;;;;6.87;6.27;;;17.10;99.90;;;;;;5059068;28;21191;-84
2021/08/31 11:37:49;;;;;;;7.10;6.47;;;17.20;99.90;;;;;;5061392;28;20678;-83
2021/08/31 11:40:17;;;;;;;5.93;5.43;;;17.30;99.90;;;;;;5065385;28;20695;-83
2021/08/31 11:42:54;;;;;;;6.97;6.37;;;17.00;99.90;;;;;;5061176;28;20646;-83
2021/08/31 11:45:23;;;;;;;8.30;7.03;;;16.70;99.90;;;;;;5059204;28;21217;-84
2021/08/31 11:47:54;;;;;;;7.93;7.03;;;16.70;99.90;;;;;;5060524;28;20737;-83
2021/08/31 11:50:22;;;;;;;7.80;6.33;;;16.90;99.90;;;;;;5063829;28;20622;-81
2021/08/31 11:52:50;;;;;;;7.73;6.70;;;17.00;99.90;;;;;;5059435;28;20665;-83
2021/08/31 11:55:24;;;;;;;7.40;6.80;;;16.80;99.90;;;;;;5050740;28;20664;-83
2021/08/31 11:58:30;;;;;;;8.10;7.30;;;16.90;99.90;;;;;;5062705;28;20677;-85
2021/08/31 12:00:58;;;;;;;7.40;6.70;;;17.10;99.90;;;;;;5037803;28;20650;-82
2021/08/31 12:03:27;;;;;;;7.50;6.80;;;17.20;99.90;;;;;;5056458;28;20673;-82
2021/08/31 12:06:01;;;;;;;7.93;7.20;;;17.30;99.90;;;;;;5062613;28;20700;-83
2021/08/31 12:08:54;;;;;;;7.33;6.73;;;17.50;99.90;;;;;;5057100;28;20641;-83
2021/08/31 12:11:43;;;;;;;10.53;6.80;;;17.70;99.90;;;;;;5062592;28;20740;-82
2021/08/31 12:14:15;;;;;;;7.37;6.73;;;17.60;99.90;;;;;;5058765;28;20632;-83
2021/08/31 12:16:43;;;;;;;8.53;7.50;;;17.50;99.90;;;;;;5061211;28;20679;-82
2021/08/31 12:19:21;;;;;;;8.73;7.93;;;17.70;99.90;;;;;;5057237;28;20700;-84
2021/08/31 12:22:09;;;;;;;7.30;6.70;;;17.90;99.90;;;;;;5060335;28;20638;-82
2021/08/31 12:24:37;;;;;;;7.80;7.20;;;17.80;99.90;;;;;;5059900;28;20724;-83
2021/08/31 12:27:11;;;;;;;8.47;7.07;;;17.90;99.90;;;;;;5060570;28;20677;-82
2021/08/31 12:29:51;;;;;;;9.33;6.40;;;18.00;99.90;;;;;;5058925;28;20637;-82
2021/08/31 12:32:26;;;;;;;7.13;6.43;;;18.20;99.90;;;;;;5063770;28;20643;-83
2021/08/31 12:34:53;;;;;;;8.20;7.40;;;18.10;99.90;;;;;;5063771;28;20638;-82
2021/08/31 12:37:33;;;;;;;7.67;7.07;;;18.10;99.90;;;;;;5072053;28;20613;-83
2021/08/31 12:40:21;;;;;;;8.30;7.60;;;18.10;99.90;;;;;;5071972;28;21195;-82
2021/08/31 12:42:51;;;;;;;6.93;6.33;;;17.90;99.90;;;;;;5064503;28;21209;-84
2021/08/31 12:45:28;;;;;;;6.90;6.30;;;17.80;99.90;;;;;;5059106;28;20730;-84
2021/08/31 12:47:56;;;;;;;7.03;6.43;;;17.90;99.90;;;;;;5058812;28;20661;-83
2021/08/31 12:50:24;;;;;;;7.53;6.83;;;18.00;99.90;;;;;;5062262;28;21190;-83
2021/08/31 12:52:58;;;;;;;7.00;6.30;;;18.10;99.90;;;;;;5061478;28;21037;-83